sensor_id;sensor_type;location;lat;lon;timestamp;P1;durP1;ratioP1;P2;durP2;ratioP2
19889;SDS011;10107;51.198;6.824;2023-06-01T00:03:02;4.10;;;2.13;;
19889;SDS011;10107;51.198;6.824;2023-06-01T00:07:06;3.53;;;1.90;;
19889;SDS011;10107;51.198;6.824;2023-06-01T00:11:10;3.25;;;2.25;;
19889;SDS011;10107;51.198;6.824;2023-06-01T00:15:16;3.40;;;2.20;;
19889;SDS011;10107;51.198;6.824;2023-06-01T00:19:20;5.15;;;2.13;;
19889;SDS011;10107;51.198;6.824;2023-06-01T00:23:25;3.58;;;2.30;;
19889;SDS011;10107;51.198;6.824;2023-06-01T00:27:33;3.55;;;2.30;;
19889;SDS011;10107;51.198;6.824;2023-06-01T00:31:36;7.38;;;2.65;;
19889;SDS011;10107;51.198;6.824;2023-06-01T00:35:41;3.70;;;2.20;;
19889;SDS011;10107;51.198;6.824;2023-06-01T00:39:45;3.97;;;2.08;;
19889;SDS011;10107;51.198;6.824;2023-06-01T00:43:49;6.75;;;2.63;;
19889;SDS011;10107;51.198;6.824;2023-06-01T00:47:55;5.47;;;2.88;;
19889;SDS011;10107;51.198;6.824;2023-06-01T00:51:59;5.38;;;2.65;;
19889;SDS011;10107;51.198;6.824;2023-06-01T00:56:06;4.13;;;2.55;;
19889;SDS011;10107;51.198;6.824;2023-06-01T01:00:10;5.78;;;3.60;;
19889;SDS011;10107;51.198;6.824;2023-06-01T01:04:13;5.03;;;2.55;;
19889;SDS011;10107;51.198;6.824;2023-06-01T01:08:27;5.20;;;3.13;;
19889;SDS011;10107;51.198;6.824;2023-06-01T01:12:43;4.60;;;2.80;;
19889;SDS011;10107;51.198;6.824;2023-06-01T01:16:54;4.53;;;3.10;;
19889;SDS011;10107;51.198;6.824;2023-06-01T01:21:04;6.43;;;3.40;;
19889;SDS011;10107;51.198;6.824;2023-06-01T01:25:28;5.63;;;3.13;;
19889;SDS011;10107;51.198;6.824;2023-06-01T01:29:44;6.35;;;3.78;;
19889;SDS011;10107;51.198;6.824;2023-06-01T01:33:48;5.90;;;3.53;;
19889;SDS011;10107;51.198;6.824;2023-06-01T01:37:59;7.13;;;3.92;;
19889;SDS011;10107;51.198;6.824;2023-06-01T01:42:01;9.57;;;3.80;;
19889;SDS011;10107;51.198;6.824;2023-06-01T01:46:11;7.07;;;3.92;;
19889;SDS011;10107;51.198;6.824;2023-06-01T01:50:29;6.13;;;3.75;;
19889;SDS011;10107;51.198;6.824;2023-06-01T01:54:41;5.32;;;3.72;;
19889;SDS011;10107;51.198;6.824;2023-06-01T01:58:45;5.97;;;4.13;;
19889;SDS011;10107;51.198;6.824;2023-06-01T02:02:51;6.78;;;4.22;;
19889;SDS011;10107;51.198;6.824;2023-06-01T02:06:53;6.53;;;4.10;;
19889;SDS011;10107;51.198;6.824;2023-06-01T02:10:55;5.00;;;4.13;;
19889;SDS011;10107;51.198;6.824;2023-06-01T02:14:57;7.47;;;3.90;;
19889;SDS011;10107;51.198;6.824;2023-06-01T02:19:01;6.85;;;4.53;;
19889;SDS011;10107;51.198;6.824;2023-06-01T02:23:11;9.00;;;4.93;;
19889;SDS011;10107;51.198;6.824;2023-06-01T02:27:13;9.82;;;5.05;;
19889;SDS011;10107;51.198;6.824;2023-06-01T02:31:17;8.35;;;5.05;;
19889;SDS011;10107;51.198;6.824;2023-06-01T02:35:20;8.32;;;4.95;;
19889;SDS011;10107;51.198;6.824;2023-06-01T02:39:23;9.85;;;5.13;;
19889;SDS011;10107;51.198;6.824;2023-06-01T02:43:26;7.68;;;5.40;;
19889;SDS011;10107;51.198;6.824;2023-06-01T02:47:29;7.55;;;5.38;;
19889;SDS011;10107;51.198;6.824;2023-06-01T02:51:33;9.40;;;4.60;;
19889;SDS011;10107;51.198;6.824;2023-06-01T02:55:47;8.95;;;5.75;;
19889;SDS011;10107;51.198;6.824;2023-06-01T03:00:20;12.68;;;6.13;;
19889;SDS011;10107;51.198;6.824;2023-06-01T03:04:23;13.23;;;6.23;;
19889;SDS011;10107;51.198;6.824;2023-06-01T03:08:28;8.98;;;6.32;;
19889;SDS011;10107;51.198;6.824;2023-06-01T03:12:30;13.20;;;6.75;;
19889;SDS011;10107;51.198;6.824;2023-06-01T03:16:33;10.80;;;6.07;;
19889;SDS011;10107;51.198;6.824;2023-06-01T03:20:47;11.32;;;6.78;;
19889;SDS011;10107;51.198;6.824;2023-06-01T03:24:50;11.13;;;6.53;;
19889;SDS011;10107;51.198;6.824;2023-06-01T03:29:00;11.45;;;6.95;;
19889;SDS011;10107;51.198;6.824;2023-06-01T03:33:04;11.68;;;6.85;;
19889;SDS011;10107;51.198;6.824;2023-06-01T03:37:05;12.73;;;7.68;;
19889;SDS011;10107;51.198;6.824;2023-06-01T03:41:09;13.45;;;7.53;;
19889;SDS011;10107;51.198;6.824;2023-06-01T03:45:11;10.30;;;5.73;;
19889;SDS011;10107;51.198;6.824;2023-06-01T03:49:13;15.35;;;8.50;;
19889;SDS011;10107;51.198;6.824;2023-06-01T03:53:15;12.30;;;8.15;;
19889;SDS011;10107;51.198;6.824;2023-06-01T03:57:18;13.55;;;8.02;;
19889;SDS011;10107;51.198;6.824;2023-06-01T04:01:21;16.35;;;9.63;;
19889;SDS011;10107;51.198;6.824;2023-06-01T04:05:24;20.17;;;12.02;;
19889;SDS011;10107;51.198;6.824;2023-06-01T04:09:26;17.55;;;11.10;;
19889;SDS011;10107;51.198;6.824;2023-06-01T04:13:30;23.27;;;12.35;;
19889;SDS011;10107;51.198;6.824;2023-06-01T04:17:31;22.80;;;12.17;;
19889;SDS011;10107;51.198;6.824;2023-06-01T04:21:33;22.38;;;14.13;;
19889;SDS011;10107;51.198;6.824;2023-06-01T04:29:42;21.85;;;12.90;;
19889;SDS011;10107;51.198;6.824;2023-06-01T04:33:44;16.55;;;11.45;;
19889;SDS011;10107;51.198;6.824;2023-06-01T04:37:53;22.65;;;13.30;;
19889;SDS011;10107;51.198;6.824;2023-06-01T04:41:55;23.52;;;13.35;;
19889;SDS011;10107;51.198;6.824;2023-06-01T04:45:59;23.13;;;12.52;;
19889;SDS011;10107;51.198;6.824;2023-06-01T04:50:04;17.23;;;11.82;;
19889;SDS011;10107;51.198;6.824;2023-06-01T04:54:08;23.42;;;12.77;;
19889;SDS011;10107;51.198;6.824;2023-06-01T04:58:10;21.73;;;12.95;;
19889;SDS011;10107;51.198;6.824;2023-06-01T05:02:13;22.23;;;12.30;;
19889;SDS011;10107;51.198;6.824;2023-06-01T05:06:15;23.25;;;13.88;;
19889;SDS011;10107;51.198;6.824;2023-06-01T05:10:17;22.17;;;13.30;;
19889;SDS011;10107;51.198;6.824;2023-06-01T05:18:24;25.65;;;14.80;;
19889;SDS011;10107;51.198;6.824;2023-06-01T05:22:26;25.52;;;14.80;;
19889;SDS011;10107;51.198;6.824;2023-06-01T05:26:28;23.35;;;13.75;;
19889;SDS011;10107;51.198;6.824;2023-06-01T05:30:31;24.17;;;14.48;;
19889;SDS011;10107;51.198;6.824;2023-06-01T05:34:35;24.83;;;13.77;;
19889;SDS011;10107;51.198;6.824;2023-06-01T05:38:36;21.05;;;13.95;;
19889;SDS011;10107;51.198;6.824;2023-06-01T05:42:38;19.27;;;12.25;;
19889;SDS011;10107;51.198;6.824;2023-06-01T05:46:40;25.23;;;13.63;;
19889;SDS011;10107;51.198;6.824;2023-06-01T05:50:44;24.95;;;14.70;;
19889;SDS011;10107;51.198;6.824;2023-06-01T05:54:46;22.95;;;13.60;;
19889;SDS011;10107;51.198;6.824;2023-06-01T05:58:49;22.38;;;12.98;;
19889;SDS011;10107;51.198;6.824;2023-06-01T06:02:53;18.05;;;12.13;;
19889;SDS011;10107;51.198;6.824;2023-06-01T06:06:56;19.30;;;12.90;;
19889;SDS011;10107;51.198;6.824;2023-06-01T06:10:58;22.07;;;13.43;;
19889;SDS011;10107;51.198;6.824;2023-06-01T06:15:00;18.45;;;12.07;;
19889;SDS011;10107;51.198;6.824;2023-06-01T06:19:01;22.40;;;12.57;;
19889;SDS011;10107;51.198;6.824;2023-06-01T06:23:04;19.58;;;13.50;;
19889;SDS011;10107;51.198;6.824;2023-06-01T06:27:06;21.13;;;12.77;;
19889;SDS011;10107;51.198;6.824;2023-06-01T06:31:08;22.38;;;13.95;;
19889;SDS011;10107;51.198;6.824;2023-06-01T06:35:10;19.38;;;12.40;;
19889;SDS011;10107;51.198;6.824;2023-06-01T06:39:15;24.95;;;13.68;;
19889;SDS011;10107;51.198;6.824;2023-06-01T06:43:16;15.17;;;10.00;;
19889;SDS011;10107;51.198;6.824;2023-06-01T06:47:18;20.95;;;13.60;;
19889;SDS011;10107;51.198;6.824;2023-06-01T06:51:20;22.50;;;13.43;;
19889;SDS011;10107;51.198;6.824;2023-06-01T06:55:23;21.65;;;13.57;;
19889;SDS011;10107;51.198;6.824;2023-06-01T06:59:26;24.13;;;14.63;;
19889;SDS011;10107;51.198;6.824;2023-06-01T07:03:28;23.17;;;14.05;;
19889;SDS011;10107;51.198;6.824;2023-06-01T07:07:30;21.27;;;14.32;;
19889;SDS011;10107;51.198;6.824;2023-06-01T07:11:33;21.98;;;14.35;;
19889;SDS011;10107;51.198;6.824;2023-06-01T07:15:35;22.13;;;13.65;;
19889;SDS011;10107;51.198;6.824;2023-06-01T07:19:37;19.92;;;13.13;;
19889;SDS011;10107;51.198;6.824;2023-06-01T07:23:41;18.00;;;12.23;;
19889;SDS011;10107;51.198;6.824;2023-06-01T07:27:44;14.23;;;10.77;;
19889;SDS011;10107;51.198;6.824;2023-06-01T07:31:49;12.52;;;9.48;;
19889;SDS011;10107;51.198;6.824;2023-06-01T07:35:51;17.58;;;10.90;;
19889;SDS011;10107;51.198;6.824;2023-06-01T07:39:54;14.35;;;9.98;;
19889;SDS011;10107;51.198;6.824;2023-06-01T07:43:57;14.05;;;10.50;;
19889;SDS011;10107;51.198;6.824;2023-06-01T07:47:58;13.80;;;10.27;;
19889;SDS011;10107;51.198;6.824;2023-06-01T07:52:01;14.82;;;11.32;;
19889;SDS011;10107;51.198;6.824;2023-06-01T07:56:03;13.90;;;9.85;;
19889;SDS011;10107;51.198;6.824;2023-06-01T08:00:07;11.60;;;8.57;;
19889;SDS011;10107;51.198;6.824;2023-06-01T08:04:12;11.40;;;9.15;;
19889;SDS011;10107;51.198;6.824;2023-06-01T08:08:14;15.07;;;10.80;;
19889;SDS011;10107;51.198;6.824;2023-06-01T08:12:16;14.98;;;11.45;;
19889;SDS011;10107;51.198;6.824;2023-06-01T08:16:19;13.88;;;11.00;;
19889;SDS011;10107;51.198;6.824;2023-06-01T08:20:20;15.95;;;11.57;;
19889;SDS011;10107;51.198;6.824;2023-06-01T08:24:23;18.42;;;12.43;;
19889;SDS011;10107;51.198;6.824;2023-06-01T08:28:25;14.05;;;11.52;;
19889;SDS011;10107;51.198;6.824;2023-06-01T08:32:28;11.73;;;10.27;;
19889;SDS011;10107;51.198;6.824;2023-06-01T08:36:29;15.07;;;11.43;;
19889;SDS011;10107;51.198;6.824;2023-06-01T08:40:31;17.30;;;10.50;;
19889;SDS011;10107;51.198;6.824;2023-06-01T08:44:34;12.43;;;10.00;;
19889;SDS011;10107;51.198;6.824;2023-06-01T08:48:39;13.40;;;9.40;;
19889;SDS011;10107;51.198;6.824;2023-06-01T08:52:43;11.25;;;8.88;;
19889;SDS011;10107;51.198;6.824;2023-06-01T08:56:47;12.63;;;8.73;;
19889;SDS011;10107;51.198;6.824;2023-06-01T09:00:49;12.82;;;8.90;;
19889;SDS011;10107;51.198;6.824;2023-06-01T09:04:55;12.48;;;9.85;;
19889;SDS011;10107;51.198;6.824;2023-06-01T09:08:56;13.85;;;10.20;;
19889;SDS011;10107;51.198;6.824;2023-06-01T09:12:59;15.07;;;11.70;;
19889;SDS011;10107;51.198;6.824;2023-06-01T09:17:01;15.75;;;11.57;;
19889;SDS011;10107;51.198;6.824;2023-06-01T09:21:13;18.00;;;13.43;;
19889;SDS011;10107;51.198;6.824;2023-06-01T09:25:16;18.17;;;14.85;;
19889;SDS011;10107;51.198;6.824;2023-06-01T09:29:18;19.38;;;15.30;;
19889;SDS011;10107;51.198;6.824;2023-06-01T09:33:19;20.48;;;14.00;;
19889;SDS011;10107;51.198;6.824;2023-06-01T09:37:22;17.75;;;12.93;;
19889;SDS011;10107;51.198;6.824;2023-06-01T09:41:24;18.17;;;13.10;;
19889;SDS011;10107;51.198;6.824;2023-06-01T09:45:26;16.20;;;12.32;;
19889;SDS011;10107;51.198;6.824;2023-06-01T09:49:28;19.67;;;14.90;;
19889;SDS011;10107;51.198;6.824;2023-06-01T09:53:42;21.20;;;16.33;;
19889;SDS011;10107;51.198;6.824;2023-06-01T09:57:44;19.55;;;16.05;;
19889;SDS011;10107;51.198;6.824;2023-06-01T10:01:47;20.83;;;15.80;;
19889;SDS011;10107;51.198;6.824;2023-06-01T10:05:51;26.25;;;20.80;;
19889;SDS011;10107;51.198;6.824;2023-06-01T10:09:56;23.02;;;18.73;;
19889;SDS011;10107;51.198;6.824;2023-06-01T10:13:59;24.30;;;18.65;;
19889;SDS011;10107;51.198;6.824;2023-06-01T10:18:01;22.73;;;18.05;;
19889;SDS011;10107;51.198;6.824;2023-06-01T10:22:08;20.77;;;15.82;;
19889;SDS011;10107;51.198;6.824;2023-06-01T10:26:13;23.35;;;17.13;;
19889;SDS011;10107;51.198;6.824;2023-06-01T10:30:17;23.65;;;18.13;;
19889;SDS011;10107;51.198;6.824;2023-06-01T10:38:38;19.83;;;16.17;;
19889;SDS011;10107;51.198;6.824;2023-06-01T10:42:41;21.60;;;16.00;;
19889;SDS011;10107;51.198;6.824;2023-06-01T10:46:44;18.85;;;15.10;;
19889;SDS011;10107;51.198;6.824;2023-06-01T10:50:46;16.70;;;13.88;;
19889;SDS011;10107;51.198;6.824;2023-06-01T10:55:22;15.38;;;12.00;;
19889;SDS011;10107;51.198;6.824;2023-06-01T10:59:28;15.40;;;12.38;;
19889;SDS011;10107;51.198;6.824;2023-06-01T11:03:41;17.60;;;12.35;;
19889;SDS011;10107;51.198;6.824;2023-06-01T11:07:44;17.23;;;12.15;;
19889;SDS011;10107;51.198;6.824;2023-06-01T11:20:37;12.10;;;8.15;;
19889;SDS011;10107;51.198;6.824;2023-06-01T11:24:40;10.52;;;7.20;;
19889;SDS011;10107;51.198;6.824;2023-06-01T11:28:47;9.90;;;6.93;;
19889;SDS011;10107;51.198;6.824;2023-06-01T11:32:51;10.63;;;6.28;;
19889;SDS011;10107;51.198;6.824;2023-06-01T11:36:56;9.85;;;6.22;;
19889;SDS011;10107;51.198;6.824;2023-06-01T11:40:58;9.80;;;6.15;;
19889;SDS011;10107;51.198;6.824;2023-06-01T11:45:00;10.27;;;6.78;;
19889;SDS011;10107;51.198;6.824;2023-06-01T11:49:03;11.65;;;6.55;;
19889;SDS011;10107;51.198;6.824;2023-06-01T11:53:06;10.60;;;6.57;;
19889;SDS011;10107;51.198;6.824;2023-06-01T11:57:07;8.90;;;6.30;;
19889;SDS011;10107;51.198;6.824;2023-06-01T12:01:10;9.63;;;7.10;;
19889;SDS011;10107;51.198;6.824;2023-06-01T12:05:13;11.80;;;6.50;;
19889;SDS011;10107;51.198;6.824;2023-06-01T12:13:17;10.75;;;7.10;;
19889;SDS011;10107;51.198;6.824;2023-06-01T12:17:20;10.65;;;7.07;;
19889;SDS011;10107;51.198;6.824;2023-06-01T12:21:23;10.73;;;5.78;;
19889;SDS011;10107;51.198;6.824;2023-06-01T12:25:25;10.30;;;5.93;;
19889;SDS011;10107;51.198;6.824;2023-06-01T12:29:36;9.63;;;6.63;;
19889;SDS011;10107;51.198;6.824;2023-06-01T12:33:39;10.13;;;5.65;;
19889;SDS011;10107;51.198;6.824;2023-06-01T12:37:43;9.40;;;6.20;;
19889;SDS011;10107;51.198;6.824;2023-06-01T12:41:48;11.88;;;6.93;;
19889;SDS011;10107;51.198;6.824;2023-06-01T12:45:50;9.05;;;6.07;;
19889;SDS011;10107;51.198;6.824;2023-06-01T12:50:03;9.35;;;5.45;;
19889;SDS011;10107;51.198;6.824;2023-06-01T12:54:07;11.20;;;6.30;;
19889;SDS011;10107;51.198;6.824;2023-06-01T12:58:09;9.85;;;6.35;;
19889;SDS011;10107;51.198;6.824;2023-06-01T13:02:12;9.52;;;6.20;;
19889;SDS011;10107;51.198;6.824;2023-06-01T13:06:14;10.15;;;6.72;;
19889;SDS011;10107;51.198;6.824;2023-06-01T13:10:18;12.38;;;6.93;;
19889;SDS011;10107;51.198;6.824;2023-06-01T13:14:20;10.48;;;5.90;;
19889;SDS011;10107;51.198;6.824;2023-06-01T13:18:22;10.30;;;6.60;;
19889;SDS011;10107;51.198;6.824;2023-06-01T13:22:23;9.00;;;5.22;;
19889;SDS011;10107;51.198;6.824;2023-06-01T13:26:26;10.27;;;5.97;;
19889;SDS011;10107;51.198;6.824;2023-06-01T13:30:28;9.93;;;5.40;;
19889;SDS011;10107;51.198;6.824;2023-06-01T13:34:30;11.00;;;6.00;;
19889;SDS011;10107;51.198;6.824;2023-06-01T13:38:31;9.32;;;5.97;;
19889;SDS011;10107;51.198;6.824;2023-06-01T13:42:35;9.85;;;5.97;;
19889;SDS011;10107;51.198;6.824;2023-06-01T13:46:37;10.32;;;6.88;;
19889;SDS011;10107;51.198;6.824;2023-06-01T13:50:39;8.05;;;6.05;;
19889;SDS011;10107;51.198;6.824;2023-06-01T13:54:41;9.05;;;5.97;;
19889;SDS011;10107;51.198;6.824;2023-06-01T13:58:44;9.38;;;6.53;;
19889;SDS011;10107;51.198;6.824;2023-06-01T14:02:46;8.95;;;5.88;;
19889;SDS011;10107;51.198;6.824;2023-06-01T14:06:47;11.60;;;6.13;;
19889;SDS011;10107;51.198;6.824;2023-06-01T14:10:50;10.30;;;6.03;;
19889;SDS011;10107;51.198;6.824;2023-06-01T14:14:53;8.98;;;5.70;;
19889;SDS011;10107;51.198;6.824;2023-06-01T14:18:54;8.63;;;5.38;;
19889;SDS011;10107;51.198;6.824;2023-06-01T14:22:56;12.07;;;7.00;;
19889;SDS011;10107;51.198;6.824;2023-06-01T14:26:58;10.93;;;5.75;;
19889;SDS011;10107;51.198;6.824;2023-06-01T14:31:00;12.57;;;6.40;;
19889;SDS011;10107;51.198;6.824;2023-06-01T14:35:03;9.13;;;5.28;;
19889;SDS011;10107;51.198;6.824;2023-06-01T14:39:05;7.50;;;5.20;;
19889;SDS011;10107;51.198;6.824;2023-06-01T14:43:06;8.43;;;5.13;;
19889;SDS011;10107;51.198;6.824;2023-06-01T14:47:10;7.18;;;4.72;;
19889;SDS011;10107;51.198;6.824;2023-06-01T14:55:21;9.93;;;5.63;;
19889;SDS011;10107;51.198;6.824;2023-06-01T14:59:22;8.70;;;4.68;;
19889;SDS011;10107;51.198;6.824;2023-06-01T15:03:26;6.57;;;4.93;;
19889;SDS011;10107;51.198;6.824;2023-06-01T15:07:28;9.88;;;5.68;;
19889;SDS011;10107;51.198;6.824;2023-06-01T15:11:30;6.22;;;4.30;;
19889;SDS011;10107;51.198;6.824;2023-06-01T15:15:31;10.35;;;5.78;;
19889;SDS011;10107;51.198;6.824;2023-06-01T15:19:34;8.27;;;5.10;;
19889;SDS011;10107;51.198;6.824;2023-06-01T15:23:36;8.25;;;5.05;;
19889;SDS011;10107;51.198;6.824;2023-06-01T15:27:37;6.47;;;4.93;;
19889;SDS011;10107;51.198;6.824;2023-06-01T15:31:39;5.90;;;4.60;;
19889;SDS011;10107;51.198;6.824;2023-06-01T15:35:42;7.72;;;4.93;;
19889;SDS011;10107;51.198;6.824;2023-06-01T15:39:44;7.45;;;5.10;;
19889;SDS011;10107;51.198;6.824;2023-06-01T15:43:46;8.65;;;4.93;;
19889;SDS011;10107;51.198;6.824;2023-06-01T15:47:47;7.35;;;4.85;;
19889;SDS011;10107;51.198;6.824;2023-06-01T15:51:50;10.73;;;5.13;;
19889;SDS011;10107;51.198;6.824;2023-06-01T15:55:52;8.48;;;4.57;;
19889;SDS011;10107;51.198;6.824;2023-06-01T15:59:54;8.00;;;4.82;;
19889;SDS011;10107;51.198;6.824;2023-06-01T16:03:55;8.18;;;4.90;;
19889;SDS011;10107;51.198;6.824;2023-06-01T16:07:58;7.72;;;5.20;;
19889;SDS011;10107;51.198;6.824;2023-06-01T16:12:00;8.73;;;6.07;;
19889;SDS011;10107;51.198;6.824;2023-06-01T16:16:02;10.38;;;6.07;;
19889;SDS011;10107;51.198;6.824;2023-06-01T16:20:04;8.73;;;5.25;;
19889;SDS011;10107;51.198;6.824;2023-06-01T16:28:10;11.80;;;7.03;;
19889;SDS011;10107;51.198;6.824;2023-06-01T16:32:11;8.68;;;5.80;;
19889;SDS011;10107;51.198;6.824;2023-06-01T16:36:13;11.35;;;6.75;;
19889;SDS011;10107;51.198;6.824;2023-06-01T16:40:16;8.75;;;5.63;;
19889;SDS011;10107;51.198;6.824;2023-06-01T16:48:20;8.27;;;4.93;;
19889;SDS011;10107;51.198;6.824;2023-06-01T16:52:24;9.02;;;4.97;;
19889;SDS011;10107;51.198;6.824;2023-06-01T16:56:26;9.35;;;5.32;;
19889;SDS011;10107;51.198;6.824;2023-06-01T17:00:28;9.35;;;6.20;;
19889;SDS011;10107;51.198;6.824;2023-06-01T17:04:30;9.43;;;6.30;;
19889;SDS011;10107;51.198;6.824;2023-06-01T17:08:32;9.40;;;5.95;;
19889;SDS011;10107;51.198;6.824;2023-06-01T17:12:35;10.50;;;6.25;;
19889;SDS011;10107;51.198;6.824;2023-06-01T17:16:36;10.00;;;5.93;;
19889;SDS011;10107;51.198;6.824;2023-06-01T17:20:38;11.80;;;6.95;;
19889;SDS011;10107;51.198;6.824;2023-06-01T17:24:41;8.53;;;5.20;;
19889;SDS011;10107;51.198;6.824;2023-06-01T17:28:44;7.70;;;4.82;;
19889;SDS011;10107;51.198;6.824;2023-06-01T17:32:45;8.07;;;5.30;;
19889;SDS011;10107;51.198;6.824;2023-06-01T17:36:47;10.65;;;6.15;;
19889;SDS011;10107;51.198;6.824;2023-06-01T17:40:49;7.43;;;4.88;;
19889;SDS011;10107;51.198;6.824;2023-06-01T17:44:52;5.72;;;4.03;;
19889;SDS011;10107;51.198;6.824;2023-06-01T17:48:53;9.17;;;5.60;;
19889;SDS011;10107;51.198;6.824;2023-06-01T17:52:55;5.97;;;4.38;;
19889;SDS011;10107;51.198;6.824;2023-06-01T17:56:57;6.97;;;4.05;;
19889;SDS011;10107;51.198;6.824;2023-06-01T18:01:00;6.97;;;4.28;;
19889;SDS011;10107;51.198;6.824;2023-06-01T18:05:01;7.13;;;4.37;;
19889;SDS011;10107;51.198;6.824;2023-06-01T18:09:03;5.80;;;4.22;;
19889;SDS011;10107;51.198;6.824;2023-06-01T18:13:05;10.15;;;5.13;;
19889;SDS011;10107;51.198;6.824;2023-06-01T18:17:08;7.60;;;4.82;;
19889;SDS011;10107;51.198;6.824;2023-06-01T18:21:09;8.93;;;5.00;;
19889;SDS011;10107;51.198;6.824;2023-06-01T18:25:11;6.05;;;4.53;;
19889;SDS011;10107;51.198;6.824;2023-06-01T18:33:18;6.93;;;4.90;;
19889;SDS011;10107;51.198;6.824;2023-06-01T18:37:21;8.57;;;5.22;;
19889;SDS011;10107;51.198;6.824;2023-06-01T18:41:25;6.68;;;4.45;;
19889;SDS011;10107;51.198;6.824;2023-06-01T18:45:30;5.90;;;4.93;;
19889;SDS011;10107;51.198;6.824;2023-06-01T18:49:34;9.02;;;5.20;;
19889;SDS011;10107;51.198;6.824;2023-06-01T18:53:40;8.52;;;4.70;;
19889;SDS011;10107;51.198;6.824;2023-06-01T18:57:46;7.93;;;4.90;;
19889;SDS011;10107;51.198;6.824;2023-06-01T19:01:48;6.18;;;4.90;;
19889;SDS011;10107;51.198;6.824;2023-06-01T19:05:51;7.68;;;5.18;;
19889;SDS011;10107;51.198;6.824;2023-06-01T19:09:55;8.63;;;5.00;;
19889;SDS011;10107;51.198;6.824;2023-06-01T19:13:57;7.40;;;4.90;;
19889;SDS011;10107;51.198;6.824;2023-06-01T19:17:59;9.63;;;4.95;;
19889;SDS011;10107;51.198;6.824;2023-06-01T19:22:03;6.90;;;4.88;;
19889;SDS011;10107;51.198;6.824;2023-06-01T19:26:05;5.85;;;4.30;;
19889;SDS011;10107;51.198;6.824;2023-06-01T19:30:08;7.32;;;4.70;;
19889;SDS011;10107;51.198;6.824;2023-06-01T19:34:12;7.50;;;5.32;;
19889;SDS011;10107;51.198;6.824;2023-06-01T19:38:16;6.13;;;4.80;;
19889;SDS011;10107;51.198;6.824;2023-06-01T19:42:26;7.97;;;5.45;;
19889;SDS011;10107;51.198;6.824;2023-06-01T19:46:36;7.40;;;5.00;;
19889;SDS011;10107;51.198;6.824;2023-06-01T19:50:38;8.82;;;5.00;;
19889;SDS011;10107;51.198;6.824;2023-06-01T19:54:45;7.28;;;4.78;;
19889;SDS011;10107;51.198;6.824;2023-06-01T19:58:47;4.63;;;3.13;;
19889;SDS011;10107;51.198;6.824;2023-06-01T20:02:50;8.23;;;5.00;;
19889;SDS011;10107;51.198;6.824;2023-06-01T20:06:53;7.90;;;4.97;;
19889;SDS011;10107;51.198;6.824;2023-06-01T20:10:58;6.87;;;4.33;;
19889;SDS011;10107;51.198;6.824;2023-06-01T20:15:03;7.55;;;4.35;;
19889;SDS011;10107;51.198;6.824;2023-06-01T20:19:06;9.73;;;5.00;;
19889;SDS011;10107;51.198;6.824;2023-06-01T20:23:11;7.93;;;4.90;;
19889;SDS011;10107;51.198;6.824;2023-06-01T20:27:18;7.93;;;4.88;;
19889;SDS011;10107;51.198;6.824;2023-06-01T20:31:20;7.57;;;4.85;;
19889;SDS011;10107;51.198;6.824;2023-06-01T20:35:25;8.93;;;4.32;;
19889;SDS011;10107;51.198;6.824;2023-06-01T20:39:27;8.33;;;5.07;;
19889;SDS011;10107;51.198;6.824;2023-06-01T20:43:30;7.28;;;4.70;;
19889;SDS011;10107;51.198;6.824;2023-06-01T20:47:33;8.52;;;4.95;;
19889;SDS011;10107;51.198;6.824;2023-06-01T20:51:39;8.05;;;4.53;;
19889;SDS011;10107;51.198;6.824;2023-06-01T20:55:41;6.25;;;4.25;;
19889;SDS011;10107;51.198;6.824;2023-06-01T20:59:47;8.60;;;4.97;;
19889;SDS011;10107;51.198;6.824;2023-06-01T21:03:50;6.90;;;4.20;;
19889;SDS011;10107;51.198;6.824;2023-06-01T21:07:52;6.85;;;4.80;;
19889;SDS011;10107;51.198;6.824;2023-06-01T21:11:54;7.38;;;4.60;;
19889;SDS011;10107;51.198;6.824;2023-06-01T21:15:59;8.60;;;4.88;;
19889;SDS011;10107;51.198;6.824;2023-06-01T21:20:01;5.10;;;3.60;;
19889;SDS011;10107;51.198;6.824;2023-06-01T21:24:03;7.90;;;4.70;;
19889;SDS011;10107;51.198;6.824;2023-06-01T21:28:06;7.38;;;4.55;;
19889;SDS011;10107;51.198;6.824;2023-06-01T21:32:09;9.38;;;5.20;;
19889;SDS011;10107;51.198;6.824;2023-06-01T21:36:13;8.32;;;4.93;;
19889;SDS011;10107;51.198;6.824;2023-06-01T21:40:15;9.30;;;4.57;;
19889;SDS011;10107;51.198;6.824;2023-06-01T21:44:17;6.35;;;4.72;;
19889;SDS011;10107;51.198;6.824;2023-06-01T21:48:21;6.00;;;4.38;;
19889;SDS011;10107;51.198;6.824;2023-06-01T21:52:24;8.73;;;4.97;;
19889;SDS011;10107;51.198;6.824;2023-06-01T21:56:26;7.95;;;4.88;;
19889;SDS011;10107;51.198;6.824;2023-06-01T22:00:31;10.65;;;5.85;;
19889;SDS011;10107;51.198;6.824;2023-06-01T22:04:35;4.00;;;3.23;;
19889;SDS011;10107;51.198;6.824;2023-06-01T22:08:38;9.10;;;5.10;;
19889;SDS011;10107;51.198;6.824;2023-06-01T22:12:42;8.15;;;4.60;;
19889;SDS011;10107;51.198;6.824;2023-06-01T22:16:45;9.50;;;4.90;;
19889;SDS011;10107;51.198;6.824;2023-06-01T22:20:50;9.70;;;5.17;;
19889;SDS011;10107;51.198;6.824;2023-06-01T22:24:52;7.50;;;4.45;;
19889;SDS011;10107;51.198;6.824;2023-06-01T22:28:55;8.18;;;4.55;;
19889;SDS011;10107;51.198;6.824;2023-06-01T22:32:57;6.65;;;3.75;;
19889;SDS011;10107;51.198;6.824;2023-06-01T22:37:03;9.20;;;4.63;;
19889;SDS011;10107;51.198;6.824;2023-06-01T22:41:06;6.50;;;4.13;;
19889;SDS011;10107;51.198;6.824;2023-06-01T22:45:08;7.72;;;4.70;;
19889;SDS011;10107;51.198;6.824;2023-06-01T22:49:10;8.45;;;4.75;;
19889;SDS011;10107;51.198;6.824;2023-06-01T22:53:15;7.03;;;4.60;;
19889;SDS011;10107;51.198;6.824;2023-06-01T22:57:17;7.45;;;4.70;;
19889;SDS011;10107;51.198;6.824;2023-06-01T23:01:18;7.30;;;4.28;;
19889;SDS011;10107;51.198;6.824;2023-06-01T23:05:21;7.13;;;4.32;;
19889;SDS011;10107;51.198;6.824;2023-06-01T23:09:24;8.18;;;4.78;;
19889;SDS011;10107;51.198;6.824;2023-06-01T23:13:27;7.22;;;4.93;;
19889;SDS011;10107;51.198;6.824;2023-06-01T23:17:35;8.68;;;4.50;;
19889;SDS011;10107;51.198;6.824;2023-06-01T23:21:40;10.00;;;4.93;;
19889;SDS011;10107;51.198;6.824;2023-06-01T23:25:49;6.65;;;4.35;;
19889;SDS011;10107;51.198;6.824;2023-06-01T23:29:52;9.52;;;5.18;;
19889;SDS011;10107;51.198;6.824;2023-06-01T23:33:54;7.82;;;4.35;;
19889;SDS011;10107;51.198;6.824;2023-06-01T23:37:56;9.77;;;4.68;;
19889;SDS011;10107;51.198;6.824;2023-06-01T23:42:01;7.07;;;4.30;;
19889;SDS011;10107;51.198;6.824;2023-06-01T23:46:03;7.43;;;4.55;;
19889;SDS011;10107;51.198;6.824;2023-06-01T23:50:06;9.70;;;3.95;;
19889;SDS011;10107;51.198;6.824;2023-06-01T23:54:09;7.10;;;4.05;;
19889;SDS011;10107;51.198;6.824;2023-06-01T23:58:12;6.55;;;3.97;;
